Terminal Aerodrome Forecast
Issued by NWS

Home | Current Version | Previous Version | Graphics & Text | Print | Product List | Glossary On
Versions: 1 2 3 4 5 6 7 8 9 10 11 12 13 14 15 16 17 18 19 20 21
749
FTUS43 KICT 251005 AAB
TAFRSL
TAF AMD
KRSL 251005Z 2510/2606 31011KT P6SM -TSRA SCT030 BKN080CB
     FM251200 07010KT P6SM BKN100
     FM252200 13009KT P6SM SCT150=

USA.gov is the U.S. government's official web portal to all federal, state and local government web resources and services.